sensor_id;sensor_type;location;lat;lon;timestamp;temperature;humidity
16032;DHT22;8120;48.308;8.914;2022-09-09T00:01:49;14.50;65.70
16032;DHT22;8120;48.308;8.914;2022-09-09T00:04:26;14.40;66.10
16032;DHT22;8120;48.308;8.914;2022-09-09T00:07:09;14.40;66.40
16032;DHT22;8120;48.308;8.914;2022-09-09T00:09:46;14.30;66.90
16032;DHT22;8120;48.308;8.914;2022-09-09T00:12:18;14.30;67.00
16032;DHT22;8120;48.308;8.914;2022-09-09T00:14:51;14.40;66.80
16032;DHT22;8120;48.308;8.914;2022-09-09T00:17:31;14.60;65.90
16032;DHT22;8120;48.308;8.914;2022-09-09T00:20:05;14.70;66.00
16032;DHT22;8120;48.308;8.914;2022-09-09T00:22:40;14.80;65.60
16032;DHT22;8120;48.308;8.914;2022-09-09T00:25:12;14.80;65.40
16032;DHT22;8120;48.308;8.914;2022-09-09T00:27:46;14.90;65.00
16032;DHT22;8120;48.308;8.914;2022-09-09T00:30:17;14.90;65.10
16032;DHT22;8120;48.308;8.914;2022-09-09T00:32:49;14.80;65.10
16032;DHT22;8120;48.308;8.914;2022-09-09T00:35:22;14.80;65.00
16032;DHT22;8120;48.308;8.914;2022-09-09T00:37:53;14.70;65.50
16032;DHT22;8120;48.308;8.914;2022-09-09T00:40:26;14.70;65.50
16032;DHT22;8120;48.308;8.914;2022-09-09T00:43:14;14.80;65.50
16032;DHT22;8120;48.308;8.914;2022-09-09T00:46:10;14.70;65.50
16032;DHT22;8120;48.308;8.914;2022-09-09T00:48:48;14.80;65.50
16032;DHT22;8120;48.308;8.914;2022-09-09T00:51:26;14.70;65.50
16032;DHT22;8120;48.308;8.914;2022-09-09T00:54:19;14.60;66.10
16032;DHT22;8120;48.308;8.914;2022-09-09T00:56:59;14.60;66.00
16032;DHT22;8120;48.308;8.914;2022-09-09T00:59:39;14.60;66.20
16032;DHT22;8120;48.308;8.914;2022-09-09T01:02:21;14.50;66.60
16032;DHT22;8120;48.308;8.914;2022-09-09T01:04:49;14.50;66.70
16032;DHT22;8120;48.308;8.914;2022-09-09T01:07:18;14.40;67.10
16032;DHT22;8120;48.308;8.914;2022-09-09T01:09:53;14.30;67.40
16032;DHT22;8120;48.308;8.914;2022-09-09T01:12:40;14.20;67.70
16032;DHT22;8120;48.308;8.914;2022-09-09T01:15:12;14.00;67.90
16032;DHT22;8120;48.308;8.914;2022-09-09T01:17:51;14.00;68.90
16032;DHT22;8120;48.308;8.914;2022-09-09T01:20:23;13.70;69.50
16032;DHT22;8120;48.308;8.914;2022-09-09T01:23:16;13.60;70.20
16032;DHT22;8120;48.308;8.914;2022-09-09T01:26:10;13.50;70.40
16032;DHT22;8120;48.308;8.914;2022-09-09T01:28:43;13.40;71.50
16032;DHT22;8120;48.308;8.914;2022-09-09T01:31:15;13.40;71.30
16032;DHT22;8120;48.308;8.914;2022-09-09T01:33:44;13.40;71.20
16032;DHT22;8120;48.308;8.914;2022-09-09T01:36:17;13.40;71.00
16032;DHT22;8120;48.308;8.914;2022-09-09T01:38:47;13.40;71.10
16032;DHT22;8120;48.308;8.914;2022-09-09T01:41:16;13.30;71.60
16032;DHT22;8120;48.308;8.914;2022-09-09T01:43:44;13.30;71.00
16032;DHT22;8120;48.308;8.914;2022-09-09T01:46:13;13.30;70.70
16032;DHT22;8120;48.308;8.914;2022-09-09T01:48:41;13.30;71.60
16032;DHT22;8120;48.308;8.914;2022-09-09T01:51:09;13.30;72.10
16032;DHT22;8120;48.308;8.914;2022-09-09T01:53:39;13.30;72.30
16032;DHT22;8120;48.308;8.914;2022-09-09T01:56:18;13.10;73.10
16032;DHT22;8120;48.308;8.914;2022-09-09T01:59:01;12.90;74.60
16032;DHT22;8120;48.308;8.914;2022-09-09T02:01:40;12.80;74.90
16032;DHT22;8120;48.308;8.914;2022-09-09T02:04:23;12.90;73.90
16032;DHT22;8120;48.308;8.914;2022-09-09T02:06:56;13.00;74.40
16032;DHT22;8120;48.308;8.914;2022-09-09T02:09:25;13.00;74.40
16032;DHT22;8120;48.308;8.914;2022-09-09T02:11:59;13.00;74.60
16032;DHT22;8120;48.308;8.914;2022-09-09T02:14:31;13.00;75.10
16032;DHT22;8120;48.308;8.914;2022-09-09T02:17:05;13.10;74.80
16032;DHT22;8120;48.308;8.914;2022-09-09T02:19:37;13.20;74.90
16032;DHT22;8120;48.308;8.914;2022-09-09T02:22:06;13.00;75.80
16032;DHT22;8120;48.308;8.914;2022-09-09T02:24:36;13.00;76.00
16032;DHT22;8120;48.308;8.914;2022-09-09T02:27:08;12.80;77.10
16032;DHT22;8120;48.308;8.914;2022-09-09T02:29:38;12.90;76.80
16032;DHT22;8120;48.308;8.914;2022-09-09T02:32:11;12.80;76.80
16032;DHT22;8120;48.308;8.914;2022-09-09T02:34:42;12.90;77.00
16032;DHT22;8120;48.308;8.914;2022-09-09T02:37:11;12.80;76.90
16032;DHT22;8120;48.308;8.914;2022-09-09T02:39:40;12.80;77.10
16032;DHT22;8120;48.308;8.914;2022-09-09T02:42:09;12.80;77.60
16032;DHT22;8120;48.308;8.914;2022-09-09T02:44:37;12.80;77.60
16032;DHT22;8120;48.308;8.914;2022-09-09T02:47:14;12.90;77.30
16032;DHT22;8120;48.308;8.914;2022-09-09T02:49:48;13.00;76.60
16032;DHT22;8120;48.308;8.914;2022-09-09T02:52:21;13.10;76.00
16032;DHT22;8120;48.308;8.914;2022-09-09T02:54:57;13.30;75.20
16032;DHT22;8120;48.308;8.914;2022-09-09T02:57:30;13.40;74.70
16032;DHT22;8120;48.308;8.914;2022-09-09T02:59:59;13.40;74.60
16032;DHT22;8120;48.308;8.914;2022-09-09T03:02:28;13.40;74.80
16032;DHT22;8120;48.308;8.914;2022-09-09T03:04:56;13.50;75.80
16032;DHT22;8120;48.308;8.914;2022-09-09T03:07:25;13.40;79.30
16032;DHT22;8120;48.308;8.914;2022-09-09T03:09:53;13.20;82.00
16032;DHT22;8120;48.308;8.914;2022-09-09T03:12:21;13.10;85.60
16032;DHT22;8120;48.308;8.914;2022-09-09T03:14:51;13.00;89.90
16032;DHT22;8120;48.308;8.914;2022-09-09T03:17:18;12.90;93.00
16032;DHT22;8120;48.308;8.914;2022-09-09T03:19:46;12.80;94.60
16032;DHT22;8120;48.308;8.914;2022-09-09T03:22:16;12.70;95.50
16032;DHT22;8120;48.308;8.914;2022-09-09T03:24:44;12.70;96.80
16032;DHT22;8120;48.308;8.914;2022-09-09T03:27:13;12.60;96.60
16032;DHT22;8120;48.308;8.914;2022-09-09T03:29:41;12.50;96.20
16032;DHT22;8120;48.308;8.914;2022-09-09T03:32:11;12.50;97.20
16032;DHT22;8120;48.308;8.914;2022-09-09T03:34:39;12.40;98.80
16032;DHT22;8120;48.308;8.914;2022-09-09T03:37:07;12.30;99.90
16032;DHT22;8120;48.308;8.914;2022-09-09T03:39:35;12.20;99.90
16032;DHT22;8120;48.308;8.914;2022-09-09T03:42:03;12.20;99.90
16032;DHT22;8120;48.308;8.914;2022-09-09T03:44:32;12.10;99.90
16032;DHT22;8120;48.308;8.914;2022-09-09T03:46:59;12.00;99.90
16032;DHT22;8120;48.308;8.914;2022-09-09T03:49:29;12.00;99.90
16032;DHT22;8120;48.308;8.914;2022-09-09T03:51:57;11.90;99.90
16032;DHT22;8120;48.308;8.914;2022-09-09T03:54:25;11.90;99.90
16032;DHT22;8120;48.308;8.914;2022-09-09T03:56:53;11.80;99.90
16032;DHT22;8120;48.308;8.914;2022-09-09T03:59:21;11.70;99.90
16032;DHT22;8120;48.308;8.914;2022-09-09T04:01:49;11.70;99.90
16032;DHT22;8120;48.308;8.914;2022-09-09T04:04:17;11.70;99.90
16032;DHT22;8120;48.308;8.914;2022-09-09T04:06:47;11.70;99.90
16032;DHT22;8120;48.308;8.914;2022-09-09T04:09:17;11.70;99.90
16032;DHT22;8120;48.308;8.914;2022-09-09T04:11:45;11.70;99.90
16032;DHT22;8120;48.308;8.914;2022-09-09T04:14:13;11.70;99.90
16032;DHT22;8120;48.308;8.914;2022-09-09T04:16:41;11.70;99.90
16032;DHT22;8120;48.308;8.914;2022-09-09T04:19:11;11.80;99.90
16032;DHT22;8120;48.308;8.914;2022-09-09T04:21:40;11.80;99.90
16032;DHT22;8120;48.308;8.914;2022-09-09T04:24:10;11.80;99.90
16032;DHT22;8120;48.308;8.914;2022-09-09T04:26:38;11.90;99.90
16032;DHT22;8120;48.308;8.914;2022-09-09T04:29:06;11.80;99.90
16032;DHT22;8120;48.308;8.914;2022-09-09T04:31:34;11.90;99.90
16032;DHT22;8120;48.308;8.914;2022-09-09T04:34:02;11.90;99.90
16032;DHT22;8120;48.308;8.914;2022-09-09T04:36:31;11.90;99.90
16032;DHT22;8120;48.308;8.914;2022-09-09T04:38:59;11.90;99.90
16032;DHT22;8120;48.308;8.914;2022-09-09T04:41:29;11.90;99.90
16032;DHT22;8120;48.308;8.914;2022-09-09T04:43:57;11.90;99.90
16032;DHT22;8120;48.308;8.914;2022-09-09T04:46:26;11.80;99.90
16032;DHT22;8120;48.308;8.914;2022-09-09T04:48:54;11.80;99.90
16032;DHT22;8120;48.308;8.914;2022-09-09T04:51:22;11.80;99.90
16032;DHT22;8120;48.308;8.914;2022-09-09T04:53:50;11.80;99.90
16032;DHT22;8120;48.308;8.914;2022-09-09T04:56:20;11.80;99.90
16032;DHT22;8120;48.308;8.914;2022-09-09T04:58:49;11.80;99.90
16032;DHT22;8120;48.308;8.914;2022-09-09T05:01:19;11.90;99.90
16032;DHT22;8120;48.308;8.914;2022-09-09T05:03:48;12.00;99.90
16032;DHT22;8120;48.308;8.914;2022-09-09T05:06:18;12.10;99.90
16032;DHT22;8120;48.308;8.914;2022-09-09T05:08:46;12.20;99.90
16032;DHT22;8120;48.308;8.914;2022-09-09T05:11:16;12.30;99.90
16032;DHT22;8120;48.308;8.914;2022-09-09T05:13:44;12.20;99.90
16032;DHT22;8120;48.308;8.914;2022-09-09T05:16:14;12.10;99.90
16032;DHT22;8120;48.308;8.914;2022-09-09T05:18:42;12.10;99.90
16032;DHT22;8120;48.308;8.914;2022-09-09T05:21:11;12.10;99.90
16032;DHT22;8120;48.308;8.914;2022-09-09T05:23:39;12.20;99.90
16032;DHT22;8120;48.308;8.914;2022-09-09T05:26:10;12.30;99.90
16032;DHT22;8120;48.308;8.914;2022-09-09T05:28:43;12.30;99.90
16032;DHT22;8120;48.308;8.914;2022-09-09T05:31:14;12.40;99.90
16032;DHT22;8120;48.308;8.914;2022-09-09T05:33:44;12.40;99.90
16032;DHT22;8120;48.308;8.914;2022-09-09T05:36:13;12.50;99.90
16032;DHT22;8120;48.308;8.914;2022-09-09T05:38:42;12.70;99.90
16032;DHT22;8120;48.308;8.914;2022-09-09T05:41:11;12.70;99.90
16032;DHT22;8120;48.308;8.914;2022-09-09T05:43:39;12.90;99.90
16032;DHT22;8120;48.308;8.914;2022-09-09T05:46:08;13.00;99.90
16032;DHT22;8120;48.308;8.914;2022-09-09T05:48:39;13.10;98.00
16032;DHT22;8120;48.308;8.914;2022-09-09T05:51:09;13.20;97.50
16032;DHT22;8120;48.308;8.914;2022-09-09T05:53:39;13.30;96.40
16032;DHT22;8120;48.308;8.914;2022-09-09T05:56:09;13.40;95.50
16032;DHT22;8120;48.308;8.914;2022-09-09T05:58:37;13.60;94.40
16032;DHT22;8120;48.308;8.914;2022-09-09T06:01:07;13.80;92.70
16032;DHT22;8120;48.308;8.914;2022-09-09T06:03:35;13.90;91.60
16032;DHT22;8120;48.308;8.914;2022-09-09T06:06:07;14.00;90.50
16032;DHT22;8120;48.308;8.914;2022-09-09T06:08:36;13.90;90.60
16032;DHT22;8120;48.308;8.914;2022-09-09T06:11:07;14.00;91.20
16032;DHT22;8120;48.308;8.914;2022-09-09T06:13:36;13.80;90.60
16032;DHT22;8120;48.308;8.914;2022-09-09T06:16:06;13.70;90.70
16032;DHT22;8120;48.308;8.914;2022-09-09T06:18:35;13.60;92.60
16032;DHT22;8120;48.308;8.914;2022-09-09T06:21:06;13.60;94.50
16032;DHT22;8120;48.308;8.914;2022-09-09T06:23:34;13.80;96.10
16032;DHT22;8120;48.308;8.914;2022-09-09T06:26:04;14.00;93.30
16032;DHT22;8120;48.308;8.914;2022-09-09T06:28:33;14.10;93.20
16032;DHT22;8120;48.308;8.914;2022-09-09T06:31:04;14.20;92.50
16032;DHT22;8120;48.308;8.914;2022-09-09T06:33:33;14.30;91.00
16032;DHT22;8120;48.308;8.914;2022-09-09T06:36:05;14.40;92.00
16032;DHT22;8120;48.308;8.914;2022-09-09T06:38:33;14.50;89.80
16032;DHT22;8120;48.308;8.914;2022-09-09T06:41:01;14.30;91.30
16032;DHT22;8120;48.308;8.914;2022-09-09T06:43:29;14.30;92.70
16032;DHT22;8120;48.308;8.914;2022-09-09T06:45:59;14.20;90.70
16032;DHT22;8120;48.308;8.914;2022-09-09T06:48:27;14.20;91.60
16032;DHT22;8120;48.308;8.914;2022-09-09T06:51:04;14.30;90.50
16032;DHT22;8120;48.308;8.914;2022-09-09T06:53:34;14.30;91.10
16032;DHT22;8120;48.308;8.914;2022-09-09T06:56:13;14.30;90.00
16032;DHT22;8120;48.308;8.914;2022-09-09T06:58:45;14.30;88.60
16032;DHT22;8120;48.308;8.914;2022-09-09T07:01:14;14.40;89.90
16032;DHT22;8120;48.308;8.914;2022-09-09T07:03:44;14.60;89.20
16032;DHT22;8120;48.308;8.914;2022-09-09T07:06:16;14.80;88.10
16032;DHT22;8120;48.308;8.914;2022-09-09T07:08:48;14.90;88.20
16032;DHT22;8120;48.308;8.914;2022-09-09T07:11:24;14.80;88.20
16032;DHT22;8120;48.308;8.914;2022-09-09T07:13:53;14.90;88.10
16032;DHT22;8120;48.308;8.914;2022-09-09T07:16:22;15.30;88.20
16032;DHT22;8120;48.308;8.914;2022-09-09T07:18:51;15.70;84.30
16032;DHT22;8120;48.308;8.914;2022-09-09T07:21:27;16.00;82.70
16032;DHT22;8120;48.308;8.914;2022-09-09T07:23:57;16.40;79.60
16032;DHT22;8120;48.308;8.914;2022-09-09T07:26:27;16.30;77.60
16032;DHT22;8120;48.308;8.914;2022-09-09T07:28:55;16.00;78.30
16032;DHT22;8120;48.308;8.914;2022-09-09T07:31:25;15.80;77.80
16032;DHT22;8120;48.308;8.914;2022-09-09T07:33:53;15.80;79.20
16032;DHT22;8120;48.308;8.914;2022-09-09T07:36:22;15.90;80.40
16032;DHT22;8120;48.308;8.914;2022-09-09T07:38:58;15.90;78.80
16032;DHT22;8120;48.308;8.914;2022-09-09T07:41:29;15.80;78.70
16032;DHT22;8120;48.308;8.914;2022-09-09T07:43:57;15.90;79.00
16032;DHT22;8120;48.308;8.914;2022-09-09T07:46:26;15.80;79.80
16032;DHT22;8120;48.308;8.914;2022-09-09T07:48:55;15.80;80.50
16032;DHT22;8120;48.308;8.914;2022-09-09T07:51:25;15.90;80.20
16032;DHT22;8120;48.308;8.914;2022-09-09T07:53:58;15.90;80.20
16032;DHT22;8120;48.308;8.914;2022-09-09T07:56:27;15.70;80.80
16032;DHT22;8120;48.308;8.914;2022-09-09T07:58:56;15.50;81.50
16032;DHT22;8120;48.308;8.914;2022-09-09T08:01:27;15.50;83.70
16032;DHT22;8120;48.308;8.914;2022-09-09T08:03:57;15.40;83.30
16032;DHT22;8120;48.308;8.914;2022-09-09T08:06:29;15.40;86.30
16032;DHT22;8120;48.308;8.914;2022-09-09T08:08:59;15.40;86.50
16032;DHT22;8120;48.308;8.914;2022-09-09T08:11:28;15.50;85.10
16032;DHT22;8120;48.308;8.914;2022-09-09T08:14:01;15.60;86.30
16032;DHT22;8120;48.308;8.914;2022-09-09T08:16:30;15.80;84.90
16032;DHT22;8120;48.308;8.914;2022-09-09T08:18:59;16.00;83.20
16032;DHT22;8120;48.308;8.914;2022-09-09T08:21:28;16.20;84.80
16032;DHT22;8120;48.308;8.914;2022-09-09T08:24:00;16.30;82.40
16032;DHT22;8120;48.308;8.914;2022-09-09T08:26:30;16.50;80.60
16032;DHT22;8120;48.308;8.914;2022-09-09T08:28:59;16.70;79.50
16032;DHT22;8120;48.308;8.914;2022-09-09T08:31:30;16.90;78.80
16032;DHT22;8120;48.308;8.914;2022-09-09T08:33:58;17.00;76.30
16032;DHT22;8120;48.308;8.914;2022-09-09T08:36:28;17.40;73.40
16032;DHT22;8120;48.308;8.914;2022-09-09T08:38:57;17.40;74.10
16032;DHT22;8120;48.308;8.914;2022-09-09T08:41:51;17.00;75.30
16032;DHT22;8120;48.308;8.914;2022-09-09T08:44:31;17.30;73.20
16032;DHT22;8120;48.308;8.914;2022-09-09T08:47:11;17.70;73.60
16032;DHT22;8120;48.308;8.914;2022-09-09T08:49:58;17.70;72.40
16032;DHT22;8120;48.308;8.914;2022-09-09T08:52:30;17.40;72.00
16032;DHT22;8120;48.308;8.914;2022-09-09T08:55:13;17.30;72.30
16032;DHT22;8120;48.308;8.914;2022-09-09T08:57:44;17.70;73.30
16032;DHT22;8120;48.308;8.914;2022-09-09T09:00:13;18.30;69.50
16032;DHT22;8120;48.308;8.914;2022-09-09T09:02:47;18.20;69.70
16032;DHT22;8120;48.308;8.914;2022-09-09T09:05:21;18.40;67.40
16032;DHT22;8120;48.308;8.914;2022-09-09T09:08:01;18.60;66.60
16032;DHT22;8120;48.308;8.914;2022-09-09T09:10:45;18.90;65.50
16032;DHT22;8120;48.308;8.914;2022-09-09T09:13:19;18.60;65.20
16032;DHT22;8120;48.308;8.914;2022-09-09T09:15:52;18.30;64.20
16032;DHT22;8120;48.308;8.914;2022-09-09T09:18:21;18.30;63.60
16032;DHT22;8120;48.308;8.914;2022-09-09T09:20:54;18.80;63.40
16032;DHT22;8120;48.308;8.914;2022-09-09T09:23:27;19.20;61.10
16032;DHT22;8120;48.308;8.914;2022-09-09T09:26:00;19.40;61.10
16032;DHT22;8120;48.308;8.914;2022-09-09T09:28:31;19.30;61.70
16032;DHT22;8120;48.308;8.914;2022-09-09T09:31:04;19.50;62.40
16032;DHT22;8120;48.308;8.914;2022-09-09T09:33:36;19.80;62.80
16032;DHT22;8120;48.308;8.914;2022-09-09T09:36:08;19.90;60.50
16032;DHT22;8120;48.308;8.914;2022-09-09T09:38:37;19.90;60.00
16032;DHT22;8120;48.308;8.914;2022-09-09T09:41:31;19.60;62.60
16032;DHT22;8120;48.308;8.914;2022-09-09T09:44:02;19.80;62.30
16032;DHT22;8120;48.308;8.914;2022-09-09T09:46:31;19.00;59.70
16032;DHT22;8120;48.308;8.914;2022-09-09T09:49:01;18.20;63.30
16032;DHT22;8120;48.308;8.914;2022-09-09T09:51:31;18.20;64.20
16032;DHT22;8120;48.308;8.914;2022-09-09T09:54:13;18.30;65.10
16032;DHT22;8120;48.308;8.914;2022-09-09T09:56:43;18.50;63.60
16032;DHT22;8120;48.308;8.914;2022-09-09T09:59:33;18.60;63.30
16032;DHT22;8120;48.308;8.914;2022-09-09T10:02:13;19.10;63.60
16032;DHT22;8120;48.308;8.914;2022-09-09T10:04:42;19.70;61.90
16032;DHT22;8120;48.308;8.914;2022-09-09T10:07:12;19.20;61.60
16032;DHT22;8120;48.308;8.914;2022-09-09T10:09:40;18.60;61.40
16032;DHT22;8120;48.308;8.914;2022-09-09T10:12:16;18.40;62.80
16032;DHT22;8120;48.308;8.914;2022-09-09T10:14:53;18.50;62.30
16032;DHT22;8120;48.308;8.914;2022-09-09T10:17:32;18.90;60.30
16032;DHT22;8120;48.308;8.914;2022-09-09T10:20:16;19.20;58.90
16032;DHT22;8120;48.308;8.914;2022-09-09T10:22:50;19.40;59.10
16032;DHT22;8120;48.308;8.914;2022-09-09T10:25:27;19.30;56.00
16032;DHT22;8120;48.308;8.914;2022-09-09T10:28:22;19.40;56.10
16032;DHT22;8120;48.308;8.914;2022-09-09T10:31:01;19.50;55.70
16032;DHT22;8120;48.308;8.914;2022-09-09T10:33:44;19.50;56.40
16032;DHT22;8120;48.308;8.914;2022-09-09T10:36:18;20.20;57.50
16032;DHT22;8120;48.308;8.914;2022-09-09T10:38:47;19.70;55.60
16032;DHT22;8120;48.308;8.914;2022-09-09T10:41:19;19.40;55.40
16032;DHT22;8120;48.308;8.914;2022-09-09T10:49:55;20.10;56.10
16032;DHT22;8120;48.308;8.914;2022-09-09T10:52:30;20.10;54.50
16032;DHT22;8120;48.308;8.914;2022-09-09T10:55:03;20.00;55.00
16032;DHT22;8120;48.308;8.914;2022-09-09T10:57:39;19.40;54.70
16032;DHT22;8120;48.308;8.914;2022-09-09T11:00:17;19.90;55.50
16032;DHT22;8120;48.308;8.914;2022-09-09T11:02:50;20.50;53.90
16032;DHT22;8120;48.308;8.914;2022-09-09T11:05:23;20.90;53.70
16032;DHT22;8120;48.308;8.914;2022-09-09T11:07:56;21.00;52.20
16032;DHT22;8120;48.308;8.914;2022-09-09T11:10:30;21.00;53.10
16032;DHT22;8120;48.308;8.914;2022-09-09T11:13:04;20.90;51.80
16032;DHT22;8120;48.308;8.914;2022-09-09T11:15:38;20.60;53.10
16032;DHT22;8120;48.308;8.914;2022-09-09T11:18:14;20.50;52.80
16032;DHT22;8120;48.308;8.914;2022-09-09T11:20:44;20.30;51.90
16032;DHT22;8120;48.308;8.914;2022-09-09T11:23:18;20.50;53.30
16032;DHT22;8120;48.308;8.914;2022-09-09T11:25:52;21.10;50.80
16032;DHT22;8120;48.308;8.914;2022-09-09T11:28:37;21.30;50.40
16032;DHT22;8120;48.308;8.914;2022-09-09T11:31:21;21.70;48.30
16032;DHT22;8120;48.308;8.914;2022-09-09T11:34:04;21.40;48.40
16032;DHT22;8120;48.308;8.914;2022-09-09T11:40:07;21.70;45.50
16032;DHT22;8120;48.308;8.914;2022-09-09T11:42:36;21.60;45.10
16032;DHT22;8120;48.308;8.914;2022-09-09T11:45:20;21.70;44.80
16032;DHT22;8120;48.308;8.914;2022-09-09T11:47:54;21.50;44.80
16032;DHT22;8120;48.308;8.914;2022-09-09T11:50:31;21.60;43.30
16032;DHT22;8120;48.308;8.914;2022-09-09T11:53:15;21.80;44.00
16032;DHT22;8120;48.308;8.914;2022-09-09T11:55:46;21.10;46.10
16032;DHT22;8120;48.308;8.914;2022-09-09T11:58:17;20.50;48.10
16032;DHT22;8120;48.308;8.914;2022-09-09T12:00:46;19.70;51.00
16032;DHT22;8120;48.308;8.914;2022-09-09T12:03:34;19.90;51.00
16032;DHT22;8120;48.308;8.914;2022-09-09T12:06:13;19.80;51.70
16032;DHT22;8120;48.308;8.914;2022-09-09T12:08:43;19.40;53.20
16032;DHT22;8120;48.308;8.914;2022-09-09T12:11:24;19.30;53.90
16032;DHT22;8120;48.308;8.914;2022-09-09T12:13:53;19.00;54.50
16032;DHT22;8120;48.308;8.914;2022-09-09T12:16:29;19.30;54.80
16032;DHT22;8120;48.308;8.914;2022-09-09T12:19:04;19.50;55.90
16032;DHT22;8120;48.308;8.914;2022-09-09T12:21:41;19.00;56.00
16032;DHT22;8120;48.308;8.914;2022-09-09T12:24:11;18.60;57.30
16032;DHT22;8120;48.308;8.914;2022-09-09T12:26:43;18.70;57.30
16032;DHT22;8120;48.308;8.914;2022-09-09T12:29:24;19.00;57.00
16032;DHT22;8120;48.308;8.914;2022-09-09T12:31:58;18.80;56.70
16032;DHT22;8120;48.308;8.914;2022-09-09T12:34:36;18.60;55.80
16032;DHT22;8120;48.308;8.914;2022-09-09T12:37:27;18.60;56.70
16032;DHT22;8120;48.308;8.914;2022-09-09T12:39:57;19.10;53.30
16032;DHT22;8120;48.308;8.914;2022-09-09T12:42:26;19.10;54.20
16032;DHT22;8120;48.308;8.914;2022-09-09T12:44:56;19.20;53.40
16032;DHT22;8120;48.308;8.914;2022-09-09T12:47:29;19.60;52.70
16032;DHT22;8120;48.308;8.914;2022-09-09T12:49:58;19.90;51.60
16032;DHT22;8120;48.308;8.914;2022-09-09T12:52:31;20.10;52.00
16032;DHT22;8120;48.308;8.914;2022-09-09T12:55:03;20.10;51.50
16032;DHT22;8120;48.308;8.914;2022-09-09T12:57:34;20.10;51.60
16032;DHT22;8120;48.308;8.914;2022-09-09T13:00:06;20.10;50.20
16032;DHT22;8120;48.308;8.914;2022-09-09T13:02:45;20.20;50.10
16032;DHT22;8120;48.308;8.914;2022-09-09T13:05:16;20.40;48.90
16032;DHT22;8120;48.308;8.914;2022-09-09T13:07:46;20.00;48.90
16032;DHT22;8120;48.308;8.914;2022-09-09T13:10:21;19.60;50.80
16032;DHT22;8120;48.308;8.914;2022-09-09T13:13:14;19.40;50.10
16032;DHT22;8120;48.308;8.914;2022-09-09T13:15:49;19.10;51.30
16032;DHT22;8120;48.308;8.914;2022-09-09T13:18:21;19.10;51.20
16032;DHT22;8120;48.308;8.914;2022-09-09T13:20:50;19.40;50.50
16032;DHT22;8120;48.308;8.914;2022-09-09T13:23:20;19.80;49.20
16032;DHT22;8120;48.308;8.914;2022-09-09T13:25:56;20.10;48.10
16032;DHT22;8120;48.308;8.914;2022-09-09T13:28:26;20.70;47.00
16032;DHT22;8120;48.308;8.914;2022-09-09T13:31:01;20.60;46.50
16032;DHT22;8120;48.308;8.914;2022-09-09T13:33:31;20.80;45.50
16032;DHT22;8120;48.308;8.914;2022-09-09T13:36:01;20.50;44.90
16032;DHT22;8120;48.308;8.914;2022-09-09T13:38:35;20.60;44.70
16032;DHT22;8120;48.308;8.914;2022-09-09T13:41:05;20.60;43.90
16032;DHT22;8120;48.308;8.914;2022-09-09T13:43:37;20.50;45.10
16032;DHT22;8120;48.308;8.914;2022-09-09T13:46:24;20.20;45.60
16032;DHT22;8120;48.308;8.914;2022-09-09T13:48:55;19.90;47.30
16032;DHT22;8120;48.308;8.914;2022-09-09T13:51:33;19.50;47.50
16032;DHT22;8120;48.308;8.914;2022-09-09T13:54:03;19.60;47.60
16032;DHT22;8120;48.308;8.914;2022-09-09T13:56:32;20.10;47.40
16032;DHT22;8120;48.308;8.914;2022-09-09T13:59:01;20.50;47.80
16032;DHT22;8120;48.308;8.914;2022-09-09T14:01:29;20.90;46.80
16032;DHT22;8120;48.308;8.914;2022-09-09T14:03:58;20.30;45.70
16032;DHT22;8120;48.308;8.914;2022-09-09T14:06:26;20.10;47.20
16032;DHT22;8120;48.308;8.914;2022-09-09T14:08:56;19.80;48.30
16032;DHT22;8120;48.308;8.914;2022-09-09T14:11:25;20.10;48.10
16032;DHT22;8120;48.308;8.914;2022-09-09T14:13:53;20.00;48.10
16032;DHT22;8120;48.308;8.914;2022-09-09T14:16:20;19.80;48.30
16032;DHT22;8120;48.308;8.914;2022-09-09T14:18:49;19.80;48.30
16032;DHT22;8120;48.308;8.914;2022-09-09T14:21:17;19.80;48.40
16032;DHT22;8120;48.308;8.914;2022-09-09T14:23:45;19.50;47.30
16032;DHT22;8120;48.308;8.914;2022-09-09T14:26:13;19.30;49.30
16032;DHT22;8120;48.308;8.914;2022-09-09T14:28:43;19.20;49.20
16032;DHT22;8120;48.308;8.914;2022-09-09T14:31:21;19.00;49.40
16032;DHT22;8120;48.308;8.914;2022-09-09T14:33:49;19.10;49.80
16032;DHT22;8120;48.308;8.914;2022-09-09T14:36:19;19.10;49.30
16032;DHT22;8120;48.308;8.914;2022-09-09T14:38:47;19.10;49.90
16032;DHT22;8120;48.308;8.914;2022-09-09T14:41:16;19.10;50.20
16032;DHT22;8120;48.308;8.914;2022-09-09T14:43:46;19.00;50.80
16032;DHT22;8120;48.308;8.914;2022-09-09T14:46:16;19.40;50.90
16032;DHT22;8120;48.308;8.914;2022-09-09T14:48:52;19.80;49.70
16032;DHT22;8120;48.308;8.914;2022-09-09T14:51:22;20.10;47.20
16032;DHT22;8120;48.308;8.914;2022-09-09T14:53:51;20.10;48.40
16032;DHT22;8120;48.308;8.914;2022-09-09T14:56:22;20.20;48.00
16032;DHT22;8120;48.308;8.914;2022-09-09T14:58:53;19.70;49.00
16032;DHT22;8120;48.308;8.914;2022-09-09T15:01:22;19.40;49.40
16032;DHT22;8120;48.308;8.914;2022-09-09T15:03:53;19.10;49.80
16032;DHT22;8120;48.308;8.914;2022-09-09T15:06:22;18.90;48.50
16032;DHT22;8120;48.308;8.914;2022-09-09T15:08:54;18.70;48.10
16032;DHT22;8120;48.308;8.914;2022-09-09T15:11:25;18.30;48.50
16032;DHT22;8120;48.308;8.914;2022-09-09T15:13:55;18.20;49.50
16032;DHT22;8120;48.308;8.914;2022-09-09T15:16:26;18.00;50.10
16032;DHT22;8120;48.308;8.914;2022-09-09T15:18:57;17.70;50.90
16032;DHT22;8120;48.308;8.914;2022-09-09T15:21:29;17.60;52.60
16032;DHT22;8120;48.308;8.914;2022-09-09T15:23:58;17.30;54.60
16032;DHT22;8120;48.308;8.914;2022-09-09T15:26:28;17.30;55.30
16032;DHT22;8120;48.308;8.914;2022-09-09T15:28:59;17.30;56.10
16032;DHT22;8120;48.308;8.914;2022-09-09T15:31:29;17.50;56.50
16032;DHT22;8120;48.308;8.914;2022-09-09T15:34:04;17.60;55.90
16032;DHT22;8120;48.308;8.914;2022-09-09T15:36:35;17.90;54.30
16032;DHT22;8120;48.308;8.914;2022-09-09T15:39:05;17.80;53.50
16032;DHT22;8120;48.308;8.914;2022-09-09T15:41:34;17.70;54.20
16032;DHT22;8120;48.308;8.914;2022-09-09T15:44:03;17.80;53.90
16032;DHT22;8120;48.308;8.914;2022-09-09T15:46:33;17.80;53.10
16032;DHT22;8120;48.308;8.914;2022-09-09T15:49:05;17.90;54.00
16032;DHT22;8120;48.308;8.914;2022-09-09T15:51:33;17.70;53.70
16032;DHT22;8120;48.308;8.914;2022-09-09T15:54:10;17.60;53.60
16032;DHT22;8120;48.308;8.914;2022-09-09T15:56:39;17.80;54.00
16032;DHT22;8120;48.308;8.914;2022-09-09T15:59:09;18.00;53.40
16032;DHT22;8120;48.308;8.914;2022-09-09T16:01:38;18.10;53.10
16032;DHT22;8120;48.308;8.914;2022-09-09T16:04:07;18.30;53.80
16032;DHT22;8120;48.308;8.914;2022-09-09T16:06:36;18.00;54.30
16032;DHT22;8120;48.308;8.914;2022-09-09T16:09:05;17.80;55.00
16032;DHT22;8120;48.308;8.914;2022-09-09T16:11:36;17.70;55.70
16032;DHT22;8120;48.308;8.914;2022-09-09T16:14:04;17.70;55.30
16032;DHT22;8120;48.308;8.914;2022-09-09T16:16:35;17.70;55.50
16032;DHT22;8120;48.308;8.914;2022-09-09T16:19:04;17.70;55.50
16032;DHT22;8120;48.308;8.914;2022-09-09T16:21:34;17.60;54.70
16032;DHT22;8120;48.308;8.914;2022-09-09T16:24:05;17.50;55.80
16032;DHT22;8120;48.308;8.914;2022-09-09T16:26:35;17.50;54.20